TimeCST,TemperatureF,Dew PointF,Humidity,Sea Level PressureIn,VisibilityMPH,Wind Direction,Wind SpeedMPH,Gust SpeedMPH,PrecipitationIn,Events,Conditions,WindDirDegrees,DateUTC
12:15 AM,65.3,63.9,95,30.17,10.0,NNE,4.6,-,N/A,,Scattered Clouds,30,2013-11-10 06:15:00
12:35 AM,64.8,63.5,96,30.17,10.0,NNE,4.6,-,N/A,,Scattered Clouds,30,2013-11-10 06:35:00
12:55 AM,64.2,63.5,98,30.17,10.0,North,4.6,-,N/A,,Scattered Clouds,10,2013-11-10 06:55:00
1:15 AM,63.1,63.0,99,30.17,10.0,NNW,5.8,-,N/A,,Mostly Cloudy,340,2013-11-10 07:15:00
1:35 AM,63.0,63.0,100,30.17,10.0,NNW,8.1,-,N/A,,Overcast,340,2013-11-10 07:35:00
1:55 AM,63.0,63.0,100,30.17,10.0,North,10.4,-,N/A,,Overcast,350,2013-11-10 07:55:00
2:15 AM,63.5,63.5,100,30.17,10.0,North,10.4,-,N/A,,Overcast,360,2013-11-10 08:15:00
2:35 AM,63.9,63.9,100,30.17,10.0,North,10.4,-,N/A,,Overcast,360,2013-11-10 08:35:00
2:55 AM,64.4,64.4,100,30.17,10.0,North,10.4,-,N/A,,Overcast,360,2013-11-10 08:55:00
3:15 AM,64.8,64.4,99,30.17,10.0,North,8.1,-,N/A,,Overcast,360,2013-11-10 09:15:00
3:35 AM,64.8,64.0,98,30.17,10.0,North,8.1,-,N/A,,Overcast,10,2013-11-10 09:35:00
3:55 AM,64.8,63.9,97,30.18,10.0,North,9.2,-,N/A,,Overcast,360,2013-11-10 09:55:00
4:15 AM,64.4,63.5,97,30.18,10.0,North,9.2,-,N/A,,Mostly Cloudy,360,2013-11-10 10:15:00
4:35 AM,63.7,63.0,97,30.19,10.0,North,9.2,-,N/A,,Scattered Clouds,360,2013-11-10 10:35:00
4:55 AM,63.3,62.8,98,30.19,10.0,North,6.9,-,N/A,,Scattered Clouds,360,2013-11-10 10:55:00
5:15 AM,63.5,62.2,96,30.20,10.0,North,9.2,-,N/A,,Scattered Clouds,10,2013-11-10 11:15:00
5:35 AM,63.1,61.9,96,30.20,10.0,North,10.4,-,N/A,,Mostly Cloudy,360,2013-11-10 11:35:00
5:55 AM,62.8,61.3,95,30.21,10.0,North,10.4,-,N/A,,Mostly Cloudy,350,2013-11-10 11:55:00
6:15 AM,63.1,60.8,92,30.22,10.0,North,10.4,-,N/A,,Scattered Clouds,360,2013-11-10 12:15:00
6:35 AM,63.5,60.4,90,30.22,10.0,North,10.4,-,N/A,,Mostly Cloudy,10,2013-11-10 12:35:00
6:55 AM,63.7,60.3,89,30.22,10.0,North,10.4,-,N/A,,Mostly Cloudy,360,2013-11-10 12:55:00
7:15 AM,63.7,60.3,89,30.23,10.0,North,9.2,-,N/A,,Scattered Clouds,10,2013-11-10 13:15:00
7:35 AM,64.4,60.3,86,30.23,10.0,NNE,8.1,-,N/A,,Clear,20,2013-11-10 13:35:00
7:55 AM,65.7,60.3,83,30.23,10.0,North,11.5,-,N/A,,Clear,10,2013-11-10 13:55:00
8:15 AM,66.9,60.3,79,30.24,10.0,North,12.7,-,N/A,,Scattered Clouds,360,2013-11-10 14:15:00
8:35 AM,68.0,60.6,77,30.25,10.0,North,12.7,-,N/A,,Scattered Clouds,10,2013-11-10 14:35:00
8:55 AM,67.1,59.9,78,30.25,10.0,North,10.4,16.1,N/A,,Mostly Cloudy,10,2013-11-10 14:55:00
9:15 AM,67.3,59.9,77,30.25,10.0,North,10.4,-,N/A,,Overcast,360,2013-11-10 15:15:00
9:35 AM,67.8,59.9,76,30.25,10.0,North,11.5,-,N/A,,Scattered Clouds,10,2013-11-10 15:35:00
9:55 AM,68.5,60.4,75,30.25,10.0,North,6.9,-,N/A,,Scattered Clouds,10,2013-11-10 15:55:00
10:15 AM,70.2,60.8,72,30.24,10.0,North,9.2,-,N/A,,Scattered Clouds,10,2013-11-10 16:15:00
10:35 AM,72.3,61.0,67,30.24,10.0,NNE,9.2,-,N/A,,Scattered Clouds,20,2013-11-10 16:35:00
10:55 AM,73.2,60.1,63,30.23,10.0,NNE,9.2,-,N/A,,Mostly Cloudy,20,2013-11-10 16:55:00
11:15 AM,73.0,59.5,62,30.23,10.0,NNE,9.2,-,N/A,,Overcast,30,2013-11-10 17:15:00
11:35 AM,73.9,59.4,60,30.22,10.0,NNE,13.8,-,N/A,,Mostly Cloudy,30,2013-11-10 17:35:00
11:55 AM,74.7,60.1,60,30.21,10.0,NNE,13.8,18.4,N/A,,Mostly Cloudy,20,2013-11-10 17:55:00
12:15 PM,74.8,59.2,58,30.20,10.0,NNE,13.8,-,N/A,,Scattered Clouds,20,2013-11-10 18:15:00
12:35 PM,75.4,59.9,58,30.19,10.0,NNE,11.5,17.3,N/A,,Clear,20,2013-11-10 18:35:00
12:55 PM,75.9,60.4,59,30.18,10.0,NNE,13.8,-,N/A,,Clear,20,2013-11-10 18:55:00
1:15 PM,75.6,60.3,59,30.18,10.0,NE,12.7,17.3,N/A,,Clear,40,2013-11-10 19:15:00
1:35 PM,75.4,59.5,58,30.18,10.0,NNE,13.8,19.6,N/A,,Clear,20,2013-11-10 19:35:00
1:55 PM,74.8,59.5,59,30.18,10.0,NNE,11.5,-,N/A,,Clear,20,2013-11-10 19:55:00
2:15 PM,75.4,59.5,58,30.17,10.0,NNE,12.7,16.1,N/A,,Clear,20,2013-11-10 20:15:00
2:35 PM,75.2,58.8,57,30.18,10.0,NE,10.4,-,N/A,,Clear,40,2013-11-10 20:35:00
2:55 PM,75.4,58.5,56,30.18,10.0,NE,9.2,17.3,N/A,,Clear,40,2013-11-10 20:55:00
3:15 PM,74.7,57.7,55,30.17,10.0,NNE,12.7,-,N/A,,Clear,20,2013-11-10 21:15:00
3:35 PM,74.3,57.7,56,30.17,10.0,NNE,9.2,-,N/A,,Clear,20,2013-11-10 21:35:00
3:55 PM,73.4,58.6,60,30.18,10.0,NNE,5.8,-,N/A,,Clear,30,2013-11-10 21:55:00
4:15 PM,72.0,58.6,63,30.18,10.0,NNE,6.9,-,N/A,,Clear,30,2013-11-10 22:15:00
4:35 PM,71.4,59.0,65,30.18,10.0,NNE,4.6,-,N/A,,Clear,30,2013-11-10 22:35:00
4:55 PM,69.8,59.2,69,30.18,10.0,NE,4.6,-,N/A,,Clear,40,2013-11-10 22:55:00
5:15 PM,68.5,58.8,71,30.19,10.0,NE,4.6,-,N/A,,Clear,40,2013-11-10 23:15:00
5:35 PM,67.8,58.5,72,30.20,10.0,NE,4.6,-,N/A,,Clear,40,2013-11-10 23:35:00
5:55 PM,66.7,58.3,74,30.20,10.0,NE,4.6,-,N/A,,Clear,40,2013-11-10 23:55:00
6:15 PM,66.2,58.5,76,30.21,10.0,NE,4.6,-,N/A,,Clear,40,2013-11-11 00:15:00
6:35 PM,66.0,59.0,78,30.21,10.0,NNE,3.5,-,N/A,,Clear,30,2013-11-11 00:35:00
6:55 PM,65.5,59.0,80,30.21,10.0,NE,4.6,-,N/A,,Clear,40,2013-11-11 00:55:00
7:15 PM,65.5,59.0,80,30.21,10.0,NE,3.5,-,N/A,,Clear,50,2013-11-11 01:15:00
7:35 PM,65.1,59.0,81,30.21,10.0,NNE,3.5,-,N/A,,Clear,30,2013-11-11 01:35:00
7:55 PM,64.6,58.5,80,30.22,10.0,NNE,3.5,-,N/A,,Clear,20,2013-11-11 01:55:00
8:15 PM,63.3,58.3,84,30.23,10.0,Calm,Calm,-,N/A,,Clear,0,2013-11-11 02:15:00
8:35 PM,60.3,57.7,91,30.23,10.0,Calm,Calm,-,N/A,,Clear,0,2013-11-11 02:35:00
8:55 PM,59.5,57.6,93,30.22,10.0,NNE,3.5,-,N/A,,Clear,20,2013-11-11 02:55:00
9:15 PM,60.6,58.5,93,30.23,10.0,Calm,Calm,-,N/A,,Clear,0,2013-11-11 03:15:00
9:35 PM,60.3,58.1,93,30.22,10.0,North,3.5,-,N/A,,Clear,10,2013-11-11 03:35:00
9:55 PM,60.1,58.1,93,30.22,10.0,NNE,3.5,-,N/A,,Clear,20,2013-11-11 03:55:00
10:15 PM,60.3,58.5,94,30.22,10.0,North,3.5,-,N/A,,Clear,360,2013-11-11 04:15:00
10:35 PM,59.9,58.5,95,30.21,10.0,North,3.5,-,N/A,,Clear,360,2013-11-11 04:35:00
10:55 PM,59.5,58.6,97,30.21,10.0,North,3.5,-,N/A,,Clear,360,2013-11-11 04:55:00
11:15 PM,60.8,59.5,96,30.21,10.0,North,3.5,-,N/A,,Clear,360,2013-11-11 05:15:00
11:35 PM,60.1,59.0,96,30.20,10.0,North,3.5,-,N/A,,Clear,350,2013-11-11 05:35:00
11:55 PM,59.0,58.1,97,30.20,10.0,NNW,5.8,-,N/A,,Clear,340,2013-11-11 05:55:00